Time;durP1;ratioP1;P1;durP2;ratioP2;P2;SDS_P1;SDS_P2;PMS_P1;PMS_P2;Temp;Humidity;BMP_temperature;BMP_pressure;BME280_temperature;BME280_humidity;BME280_pressure;Samples;Min_cycle;Max_cycle;Signal;HPM_P1;HPM_P2
2022/04/04 00:02:17;;;;;;;7.80;3.83;;;;;;;;;;4976689;28;20046;-85
2022/04/04 00:04:42;;;;;;;6.40;4.07;;;;;;;;;;4959905;28;20046;-82
2022/04/04 00:07:07;;;;;;;6.63;4.22;;;;;;;;;;4964348;28;20047;-84
2022/04/04 00:09:33;;;;;;;6.70;3.97;;;;;;;;;;4977003;28;20466;-83
2022/04/04 00:11:58;;;;;;;6.97;4.03;;;;;;;;;;4968218;28;20042;-83
2022/04/04 00:14:23;;;;;;;9.00;4.35;;;;;;;;;;4977190;28;20045;-82
2022/04/04 00:16:49;;;;;;;5.88;3.97;;;;;;;;;;4977360;28;20041;-83
2022/04/04 00:19:17;;;;;;;7.25;3.85;;;;;;;;;;4976421;28;20441;-83
2022/04/04 00:21:42;;;;;;;9.38;4.47;;;;;;;;;;4977269;28;20045;-83
2022/04/04 00:24:08;;;;;;;6.00;4.10;;;;;;;;;;4977605;28;20946;-83
2022/04/04 00:26:34;;;;;;;8.40;3.88;;;;;;;;;;4975135;28;20039;-84
2022/04/04 00:28:59;;;;;;;7.32;4.15;;;;;;;;;;4974744;28;20077;-84
2022/04/04 00:31:25;;;;;;;8.05;4.30;;;;;;;;;;4967914;28;20081;-84
2022/04/04 00:33:50;;;;;;;6.55;4.47;;;;;;;;;;4975727;28;20592;-83
2022/04/04 00:36:16;;;;;;;6.43;4.00;;;;;;;;;;4967450;28;20039;-84
2022/04/04 00:38:41;;;;;;;6.03;4.03;;;;;;;;;;4982609;28;20483;-82
2022/04/04 00:41:11;;;;;;;6.88;3.60;;;;;;;;;;4975721;28;20046;-83
2022/04/04 00:43:37;;;;;;;6.75;4.10;;;;;;;;;;4973246;28;20593;-83
2022/04/04 00:46:02;;;;;;;7.28;4.15;;;;;;;;;;4975234;28;20034;-83
2022/04/04 00:48:28;;;;;;;6.90;3.90;;;;;;;;;;4975656;28;20081;-83
2022/04/04 00:50:54;;;;;;;9.13;4.75;;;;;;;;;;4974957;28;20046;-83
2022/04/04 00:53:19;;;;;;;8.00;4.70;;;;;;;;;;4964265;28;20579;-83
2022/04/04 00:55:45;;;;;;;6.07;3.72;;;;;;;;;;4981613;28;20034;-82
2022/04/04 00:58:13;;;;;;;6.25;4.10;;;;;;;;;;4961645;28;20066;-83
2022/04/04 01:00:38;;;;;;;6.68;4.50;;;;;;;;;;4972806;28;20169;-83
2022/04/04 01:03:04;;;;;;;7.10;4.57;;;;;;;;;;4977608;28;20104;-83
2022/04/04 01:05:30;;;;;;;7.50;4.80;;;;;;;;;;4973266;28;20761;-83
2022/04/04 01:07:55;;;;;;;7.65;4.47;;;;;;;;;;4972277;28;20112;-84
2022/04/04 01:10:21;;;;;;;5.75;4.00;;;;;;;;;;4978835;28;20046;-84
2022/04/04 01:12:53;;;;;;;6.85;4.35;;;;;;;;;;4989208;28;20438;-82
2022/04/04 01:15:22;;;;;;;6.35;4.45;;;;;;;;;;4981332;28;20062;-83
2022/04/04 01:17:48;;;;;;;7.38;4.40;;;;;;;;;;4974609;28;20047;-83
2022/04/04 01:20:14;;;;;;;7.60;5.00;;;;;;;;;;4975484;28;20038;-83
2022/04/04 01:22:40;;;;;;;7.50;5.05;;;;;;;;;;4974615;28;20940;-82
2022/04/04 01:25:08;;;;;;;6.88;4.60;;;;;;;;;;4974346;28;20093;-82
2022/04/04 01:27:33;;;;;;;7.47;5.30;;;;;;;;;;4974032;28;20128;-83
2022/04/04 01:29:59;;;;;;;8.43;4.95;;;;;;;;;;4967762;28;20116;-83
2022/04/04 01:32:24;;;;;;;7.50;4.88;;;;;;;;;;4975021;28;20386;-83
2022/04/04 01:34:49;;;;;;;7.07;4.97;;;;;;;;;;4964309;28;20037;-83
2022/04/04 01:37:14;;;;;;;7.35;4.90;;;;;;;;;;4973219;28;20324;-82
2022/04/04 01:39:40;;;;;;;6.60;4.55;;;;;;;;;;4975146;28;20035;-82
2022/04/04 01:42:05;;;;;;;8.23;4.88;;;;;;;;;;4976055;28;20034;-83
2022/04/04 01:44:31;;;;;;;6.40;5.07;;;;;;;;;;4978987;28;20121;-83
2022/04/04 01:46:56;;;;;;;9.40;5.10;;;;;;;;;;4973790;28;20041;-84
2022/04/04 01:49:22;;;;;;;6.80;4.90;;;;;;;;;;4974158;28;20449;-84
2022/04/04 01:51:47;;;;;;;8.43;4.70;;;;;;;;;;4961829;28;20153;-84
2022/04/04 01:54:13;;;;;;;6.95;4.95;;;;;;;;;;4974254;28;20038;-83
2022/04/04 01:56:40;;;;;;;7.78;5.03;;;;;;;;;;4973088;28;20126;-84
2022/04/04 01:59:06;;;;;;;6.75;4.90;;;;;;;;;;4964587;28;20540;-83
2022/04/04 02:01:34;;;;;;;7.32;5.35;;;;;;;;;;4974892;28;20037;-83
2022/04/04 02:04:00;;;;;;;7.68;5.28;;;;;;;;;;4960383;28;20034;-83
2022/04/04 02:06:25;;;;;;;8.43;5.00;;;;;;;;;;4959539;28;20054;-84
2022/04/04 02:08:51;;;;;;;8.82;5.32;;;;;;;;;;4978435;28;20047;-84
2022/04/04 02:11:19;;;;;;;9.43;5.10;;;;;;;;;;4968447;28;20770;-84
2022/04/04 02:13:45;;;;;;;7.60;5.00;;;;;;;;;;4964738;28;20034;-84
2022/04/04 02:16:11;;;;;;;9.05;5.43;;;;;;;;;;4971386;28;20033;-83
2022/04/04 02:18:36;;;;;;;7.47;5.38;;;;;;;;;;4972492;28;20387;-84
2022/04/04 02:21:05;;;;;;;6.72;5.25;;;;;;;;;;4959832;28;20041;-82
2022/04/04 02:23:31;;;;;;;9.00;5.20;;;;;;;;;;4961284;28;20031;-82
2022/04/04 02:25:57;;;;;;;8.05;5.50;;;;;;;;;;4975893;28;20035;-84
2022/04/04 02:28:23;;;;;;;9.50;5.68;;;;;;;;;;4976558;28;20077;-84
2022/04/04 02:30:49;;;;;;;7.88;5.43;;;;;;;;;;4980168;28;20086;-84
2022/04/04 02:33:18;;;;;;;7.50;5.60;;;;;;;;;;4973826;28;20046;-83
2022/04/04 02:35:44;;;;;;;7.63;5.63;;;;;;;;;;4977276;28;20035;-84
2022/04/04 02:38:09;;;;;;;8.15;5.68;;;;;;;;;;4973258;28;20505;-83
2022/04/04 02:40:35;;;;;;;8.15;5.50;;;;;;;;;;4975075;28;20062;-84
2022/04/04 02:43:01;;;;;;;8.52;5.60;;;;;;;;;;4966995;28;20034;-84
2022/04/04 02:45:26;;;;;;;8.32;5.50;;;;;;;;;;4976258;28;20038;-85
2022/04/04 02:47:52;;;;;;;6.93;5.30;;;;;;;;;;4975495;28;20050;-85
2022/04/04 02:50:17;;;;;;;7.78;4.95;;;;;;;;;;4981196;28;20073;-84
2022/04/04 02:52:43;;;;;;;7.90;5.00;;;;;;;;;;4956845;28;20089;-85
2022/04/04 02:57:52;;;;;;;7.55;5.55;;;;;;;;;;4973641;28;20391;-85
2022/04/04 03:00:19;;;;;;;9.23;5.60;;;;;;;;;;4975670;28;20035;-82
2022/04/04 03:02:47;;;;;;;10.55;5.53;;;;;;;;;;4981969;28;20156;-83
2022/04/04 03:05:13;;;;;;;8.68;5.82;;;;;;;;;;4975470;28;20113;-83
2022/04/04 03:07:38;;;;;;;9.57;5.78;;;;;;;;;;4961208;28;20680;-83
2022/04/04 03:10:04;;;;;;;7.35;5.75;;;;;;;;;;4963890;28;20386;-83
2022/04/04 03:12:29;;;;;;;9.00;6.03;;;;;;;;;;4973421;28;20049;-84
2022/04/04 03:14:55;;;;;;;8.95;6.10;;;;;;;;;;4974716;28;20038;-82
2022/04/04 03:17:20;;;;;;;8.45;6.70;;;;;;;;;;4972987;28;20062;-82
2022/04/04 03:19:46;;;;;;;9.73;6.57;;;;;;;;;;4971712;28;20379;-83
2022/04/04 03:22:12;;;;;;;10.10;6.20;;;;;;;;;;4973852;28;20136;-84
2022/04/04 03:24:37;;;;;;;8.13;6.00;;;;;;;;;;4975307;28;20117;-84
2022/04/04 03:27:04;;;;;;;10.05;6.25;;;;;;;;;;4973470;28;20537;-83
2022/04/04 03:29:29;;;;;;;9.73;7.18;;;;;;;;;;4967312;28;20046;-83
2022/04/04 03:31:54;;;;;;;10.60;6.78;;;;;;;;;;4973081;28;20494;-83
2022/04/04 03:34:20;;;;;;;8.93;6.15;;;;;;;;;;4973074;28;20045;-84
2022/04/04 03:36:46;;;;;;;9.40;6.30;;;;;;;;;;4977846;28;20193;-83
2022/04/04 03:39:13;;;;;;;8.55;6.72;;;;;;;;;;4977119;28;20070;-83
2022/04/04 03:41:38;;;;;;;7.93;6.20;;;;;;;;;;4958679;28;20031;-82
2022/04/04 03:44:06;;;;;;;9.80;7.07;;;;;;;;;;4980911;28;20043;-82
2022/04/04 03:46:32;;;;;;;8.38;6.63;;;;;;;;;;4983053;28;20031;-81
2022/04/04 03:48:57;;;;;;;8.10;5.97;;;;;;;;;;4976225;28;20044;-82
2022/04/04 03:51:23;;;;;;;8.70;6.55;;;;;;;;;;4976880;28;20445;-82
2022/04/04 03:53:48;;;;;;;8.77;6.63;;;;;;;;;;4976004;28;20045;-82
2022/04/04 03:56:14;;;;;;;9.43;6.57;;;;;;;;;;4968771;28;20043;-83
2022/04/04 03:58:39;;;;;;;9.25;6.78;;;;;;;;;;4984587;28;20039;-82
2022/04/04 04:01:05;;;;;;;9.77;7.10;;;;;;;;;;4962714;28;20054;-83
2022/04/04 04:03:31;;;;;;;8.68;6.13;;;;;;;;;;4977730;28;20478;-82
2022/04/04 04:06:11;;;;;;;9.32;6.20;;;;;;;;;;4975056;28;20066;-81
2022/04/04 04:08:37;;;;;;;9.13;6.50;;;;;;;;;;4984186;28;20035;-83
2022/04/04 04:11:03;;;;;;;8.77;6.60;;;;;;;;;;4974912;28;20482;-84
2022/04/04 04:13:28;;;;;;;8.80;5.85;;;;;;;;;;4975793;28;20038;-84
2022/04/04 04:15:54;;;;;;;8.25;6.10;;;;;;;;;;4978840;28;20045;-83
2022/04/04 04:18:20;;;;;;;9.45;6.03;;;;;;;;;;4976735;28;20042;-84
2022/04/04 04:20:45;;;;;;;7.85;6.55;;;;;;;;;;4975995;28;20530;-83
2022/04/04 04:23:13;;;;;;;10.27;6.13;;;;;;;;;;4976293;28;20116;-83
2022/04/04 04:25:38;;;;;;;7.93;6.25;;;;;;;;;;4967751;28;20034;-84
2022/04/04 04:28:05;;;;;;;9.07;6.68;;;;;;;;;;4975864;28;20100;-84
2022/04/04 04:30:31;;;;;;;9.90;6.30;;;;;;;;;;4967175;28;20039;-84
2022/04/04 04:32:57;;;;;;;8.70;5.82;;;;;;;;;;4967639;28;20034;-85
2022/04/04 04:35:23;;;;;;;8.65;6.28;;;;;;;;;;4981351;28;20368;-84
2022/04/04 04:37:50;;;;;;;8.55;6.43;;;;;;;;;;4973708;28;20074;-84
2022/04/04 04:40:15;;;;;;;8.05;5.70;;;;;;;;;;4975014;28;20038;-84
2022/04/04 04:42:42;;;;;;;7.57;6.07;;;;;;;;;;4975120;28;20442;-83
2022/04/04 04:45:08;;;;;;;9.57;5.90;;;;;;;;;;4972787;28;20483;-83
2022/04/04 04:47:34;;;;;;;9.52;6.45;;;;;;;;;;4977184;28;20032;-83
2022/04/04 04:50:00;;;;;;;8.48;6.50;;;;;;;;;;4974383;28;20070;-82
2022/04/04 04:52:26;;;;;;;8.63;6.20;;;;;;;;;;4972334;28;20696;-84
2022/04/04 04:54:52;;;;;;;9.93;6.40;;;;;;;;;;4981388;28;20193;-84
2022/04/04 04:57:18;;;;;;;10.13;6.60;;;;;;;;;;4961491;28;20375;-84
2022/04/04 04:59:43;;;;;;;10.45;6.68;;;;;;;;;;4975677;28;20042;-85
2022/04/04 05:02:08;;;;;;;11.13;6.30;;;;;;;;;;4975611;28;20081;-86
2022/04/04 05:04:34;;;;;;;7.93;6.32;;;;;;;;;;4977454;28;20561;-84
2022/04/04 05:06:59;;;;;;;11.55;6.45;;;;;;;;;;4973641;28;20907;-84
2022/04/04 05:09:24;;;;;;;11.23;6.25;;;;;;;;;;4971762;28;20062;-84
2022/04/04 05:11:50;;;;;;;10.00;6.43;;;;;;;;;;4961665;28;20042;-84
2022/04/04 05:14:15;;;;;;;9.27;6.20;;;;;;;;;;4972284;28;20043;-83
2022/04/04 05:16:44;;;;;;;8.77;6.57;;;;;;;;;;4959715;28;20049;-85
2022/04/04 05:19:14;;;;;;;10.80;6.60;;;;;;;;;;4974374;28;20045;-86
2022/04/04 05:21:40;;;;;;;8.15;6.50;;;;;;;;;;4977840;28;20039;-85
2022/04/04 05:24:06;;;;;;;8.35;6.15;;;;;;;;;;4974536;28;20073;-85
2022/04/04 05:26:32;;;;;;;10.75;6.82;;;;;;;;;;4973847;28;20122;-84
2022/04/04 05:28:57;;;;;;;9.38;6.20;;;;;;;;;;4975797;28;20640;-84
2022/04/04 05:31:23;;;;;;;10.18;6.63;;;;;;;;;;4958448;28;20129;-85
2022/04/04 05:33:48;;;;;;;11.55;6.85;;;;;;;;;;4973362;28;20042;-85
2022/04/04 05:36:14;;;;;;;9.10;6.63;;;;;;;;;;4973807;28;20517;-84
2022/04/04 05:38:39;;;;;;;11.13;7.82;;;;;;;;;;4966840;28;20045;-85
2022/04/04 05:41:04;;;;;;;7.75;6.47;;;;;;;;;;4974344;28;20125;-87
2022/04/04 05:43:30;;;;;;;10.07;6.88;;;;;;;;;;4976181;28;20034;-85
2022/04/04 05:45:55;;;;;;;9.65;6.78;;;;;;;;;;4978804;28;20065;-86
2022/04/04 05:48:20;;;;;;;9.68;7.07;;;;;;;;;;4960009;28;20031;-85
2022/04/04 05:50:46;;;;;;;8.98;7.53;;;;;;;;;;4972953;28;20573;-86
2022/04/04 05:53:14;;;;;;;8.50;7.20;;;;;;;;;;4975165;28;20042;-87
2022/04/04 05:55:42;;;;;;;11.48;7.20;;;;;;;;;;4974987;28;20053;-89
2022/04/04 05:58:07;;;;;;;9.85;7.60;;;;;;;;;;4974211;28;20034;-89
2022/04/04 06:00:33;;;;;;;9.35;7.50;;;;;;;;;;4963187;28;20081;-89
2022/04/04 06:02:58;;;;;;;8.93;7.20;;;;;;;;;;4975885;28;20061;-87
2022/04/04 06:05:24;;;;;;;11.95;7.97;;;;;;;;;;4952938;28;20047;-89
2022/04/04 06:07:49;;;;;;;11.23;8.07;;;;;;;;;;4965423;28;20089;-87
2022/04/04 06:10:16;;;;;;;10.85;7.78;;;;;;;;;;4975328;28;20038;-86
2022/04/04 06:12:43;;;;;;;12.30;8.20;;;;;;;;;;4966208;28;20035;-86
2022/04/04 06:15:10;;;;;;;12.25;7.68;;;;;;;;;;4981180;28;20031;-87
2022/04/04 06:17:35;;;;;;;11.20;8.13;;;;;;;;;;4974228;28;20035;-86
2022/04/04 06:20:01;;;;;;;12.32;8.45;;;;;;;;;;4975568;28;20043;-87
2022/04/04 06:22:26;;;;;;;11.85;8.85;;;;;;;;;;4976406;28;20031;-86
2022/04/04 06:24:51;;;;;;;11.82;8.80;;;;;;;;;;4977965;28;20034;-87
2022/04/04 06:27:17;;;;;;;11.48;8.40;;;;;;;;;;4979786;28;20049;-83
2022/04/04 06:29:43;;;;;;;11.18;8.60;;;;;;;;;;4972035;28;20038;-82
2022/04/04 06:32:10;;;;;;;13.15;9.20;;;;;;;;;;4973966;28;20034;-83
2022/04/04 06:34:36;;;;;;;12.65;9.35;;;;;;;;;;4975546;28;20513;-82
2022/04/04 06:37:01;;;;;;;12.50;9.07;;;;;;;;;;4965461;28;20066;-83
2022/04/04 06:39:26;;;;;;;12.95;8.95;;;;;;;;;;4973898;28;20038;-83
2022/04/04 06:41:52;;;;;;;12.90;9.25;;;;;;;;;;4974533;28;20050;-83
2022/04/04 06:44:17;;;;;;;11.95;8.73;;;;;;;;;;4965792;28;20121;-83
2022/04/04 06:46:43;;;;;;;12.40;9.10;;;;;;;;;;4979092;28;20034;-83
2022/04/04 06:49:08;;;;;;;12.32;9.60;;;;;;;;;;4974827;28;20166;-84
2022/04/04 06:51:34;;;;;;;11.60;9.65;;;;;;;;;;4972489;28;20038;-83
2022/04/04 06:54:03;;;;;;;14.25;9.70;;;;;;;;;;4981080;28;20558;-83
2022/04/04 06:56:28;;;;;;;16.27;9.82;;;;;;;;;;4975202;28;20506;-83
2022/04/04 06:58:54;;;;;;;11.32;9.48;;;;;;;;;;4972497;28;20047;-88
2022/04/04 07:01:19;;;;;;;12.77;9.52;;;;;;;;;;4972796;28;20129;-86
2022/04/04 07:03:45;;;;;;;13.20;10.90;;;;;;;;;;4974348;28;20053;-86
2022/04/04 07:06:10;;;;;;;13.95;10.30;;;;;;;;;;4972542;28;20518;-87
2022/04/04 07:08:36;;;;;;;12.95;9.60;;;;;;;;;;4973639;28;20578;-88
2022/04/04 07:11:03;;;;;;;13.27;10.02;;;;;;;;;;4966775;28;20482;-87
2022/04/04 07:13:28;;;;;;;12.17;10.20;;;;;;;;;;4976631;28;20034;-87
2022/04/04 07:15:54;;;;;;;13.60;10.25;;;;;;;;;;4979832;28;20054;-88
2022/04/04 07:18:19;;;;;;;13.10;10.18;;;;;;;;;;4976867;28;20041;-85
2022/04/04 07:20:44;;;;;;;14.25;10.75;;;;;;;;;;4975998;28;20039;-86
2022/04/04 07:23:10;;;;;;;12.70;10.27;;;;;;;;;;4978901;28;20045;-86
2022/04/04 07:25:36;;;;;;;11.82;9.95;;;;;;;;;;4976584;28;20049;-86
2022/04/04 07:28:01;;;;;;;13.45;9.85;;;;;;;;;;4977145;28;20039;-87
2022/04/04 07:30:27;;;;;;;12.48;10.50;;;;;;;;;;4966014;28;20052;-86
2022/04/04 07:32:52;;;;;;;16.15;10.95;;;;;;;;;;4981941;28;20051;-88
2022/04/04 07:35:19;;;;;;;11.43;9.70;;;;;;;;;;4981056;28;20039;-88
2022/04/04 07:37:46;;;;;;;14.20;11.10;;;;;;;;;;4970044;28;20042;-86
2022/04/04 07:40:14;;;;;;;13.50;10.57;;;;;;;;;;4976681;28;20116;-86
2022/04/04 07:42:41;;;;;;;15.02;10.93;;;;;;;;;;4962296;28;20041;-86
2022/04/04 07:45:07;;;;;;;16.30;10.75;;;;;;;;;;4975510;28;20062;-87
2022/04/04 07:47:33;;;;;;;13.82;10.38;;;;;;;;;;4975598;28;20628;-87
2022/04/04 07:49:58;;;;;;;12.57;10.60;;;;;;;;;;4968655;28;20170;-87
2022/04/04 07:52:25;;;;;;;12.80;10.32;;;;;;;;;;4963226;28;20738;-87
2022/04/04 07:54:51;;;;;;;14.13;11.02;;;;;;;;;;4976723;28;20656;-86
2022/04/04 07:57:17;;;;;;;14.65;10.48;;;;;;;;;;4974600;28;20098;-86
2022/04/04 07:59:43;;;;;;;12.45;10.10;;;;;;;;;;4975036;28;20034;-87
2022/04/04 08:02:08;;;;;;;14.00;10.85;;;;;;;;;;4959782;28;20038;-87
2022/04/04 08:04:34;;;;;;;13.30;10.25;;;;;;;;;;4976852;28;20054;-88
2022/04/04 08:06:59;;;;;;;14.73;10.35;;;;;;;;;;4970244;28;22296;-88
2022/04/04 08:09:26;;;;;;;14.90;10.50;;;;;;;;;;4977939;28;20494;-88
2022/04/04 08:11:52;;;;;;;12.15;9.73;;;;;;;;;;4977789;28;20031;-88
2022/04/04 08:14:18;;;;;;;13.07;9.75;;;;;;;;;;4975868;28;20125;-86
2022/04/04 08:16:43;;;;;;;12.88;10.02;;;;;;;;;;4977590;28;20109;-87
2022/04/04 08:19:08;;;;;;;12.02;10.30;;;;;;;;;;4977609;28;20042;-87
2022/04/04 08:21:34;;;;;;;15.13;9.05;;;;;;;;;;4976923;28;20066;-86
2022/04/04 08:24:05;;;;;;;11.23;9.18;;;;;;;;;;4960677;28;20042;-84
2022/04/04 08:26:31;;;;;;;12.23;9.05;;;;;;;;;;4975921;28;20061;-83
2022/04/04 08:28:56;;;;;;;10.40;8.60;;;;;;;;;;4983275;28;20038;-85
2022/04/04 08:31:22;;;;;;;11.25;8.55;;;;;;;;;;4974906;28;20667;-84
2022/04/04 08:33:47;;;;;;;13.35;9.18;;;;;;;;;;4974416;28;20077;-84
2022/04/04 08:36:15;;;;;;;13.88;8.65;;;;;;;;;;4975850;28;20046;-86
2022/04/04 08:38:41;;;;;;;12.93;8.65;;;;;;;;;;4975786;28;20111;-84
2022/04/04 08:41:08;;;;;;;12.18;8.43;;;;;;;;;;4975942;28;20050;-84
2022/04/04 08:43:36;;;;;;;11.20;8.57;;;;;;;;;;4974617;28;20498;-84
2022/04/04 08:46:06;;;;;;;10.18;7.80;;;;;;;;;;4974709;28;20042;-83
2022/04/04 08:48:32;;;;;;;10.52;8.30;;;;;;;;;;4975249;28;20039;-84
2022/04/04 08:50:59;;;;;;;9.65;7.47;;;;;;;;;;4973529;28;20086;-84
2022/04/04 08:53:24;;;;;;;9.25;7.65;;;;;;;;;;4976141;28;20035;-85
2022/04/04 08:55:49;;;;;;;9.32;7.55;;;;;;;;;;4974388;28;20041;-85
2022/04/04 08:58:15;;;;;;;11.40;8.05;;;;;;;;;;4967385;28;20058;-84
2022/04/04 09:00:41;;;;;;;10.73;7.70;;;;;;;;;;4977023;28;20039;-85
2022/04/04 09:03:08;;;;;;;9.25;7.53;;;;;;;;;;4968284;28;20034;-85
2022/04/04 09:05:34;;;;;;;10.70;7.63;;;;;;;;;;4971049;28;20166;-84
2022/04/04 09:08:07;;;;;;;9.35;7.43;;;;;;;;;;4974440;28;21586;-85
2022/04/04 09:10:35;;;;;;;10.02;6.95;;;;;;;;;;4971428;28;21175;-85
2022/04/04 09:13:12;;;;;;;12.73;7.40;;;;;;;;;;4961448;28;20043;-84
2022/04/04 09:15:58;;;;;;;10.88;7.43;;;;;;;;;;4973917;28;20430;-84
2022/04/04 09:18:42;;;;;;;12.52;7.15;;;;;;;;;;4974309;28;20366;-84
2022/04/04 09:21:08;;;;;;;9.35;6.80;;;;;;;;;;4974748;28;20045;-85
2022/04/04 09:23:50;;;;;;;8.75;6.60;;;;;;;;;;4974106;28;20045;-84
2022/04/04 09:26:45;;;;;;;10.32;6.80;;;;;;;;;;4973478;28;20043;-84
2022/04/04 09:29:18;;;;;;;10.05;6.88;;;;;;;;;;4957243;28;21071;-84
2022/04/04 09:31:55;;;;;;;11.38;7.07;;;;;;;;;;4976482;28;20394;-84
2022/04/04 09:34:20;;;;;;;11.68;7.15;;;;;;;;;;4979568;28;20105;-85
2022/04/04 09:36:47;;;;;;;11.57;7.40;;;;;;;;;;4965320;28;20053;-84
2022/04/04 09:39:16;;;;;;;8.55;6.97;;;;;;;;;;4959480;28;20035;-84
2022/04/04 09:41:41;;;;;;;10.35;7.13;;;;;;;;;;4980713;28;20030;-84
2022/04/04 09:44:13;;;;;;;13.32;6.95;;;;;;;;;;4975921;28;20479;-83
2022/04/04 09:46:41;;;;;;;9.73;7.38;;;;;;;;;;4974935;28;20506;-83
2022/04/04 09:49:17;;;;;;;9.95;7.63;;;;;;;;;;4968420;28;20034;-84
2022/04/04 09:51:51;;;;;;;11.20;7.50;;;;;;;;;;4965069;28;20042;-84
2022/04/04 09:54:26;;;;;;;10.80;7.57;;;;;;;;;;4973779;28;20042;-84
2022/04/04 09:57:18;;;;;;;12.80;7.30;;;;;;;;;;4973784;28;20042;-86
2022/04/04 09:59:44;;;;;;;12.52;7.57;;;;;;;;;;4965428;28;20047;-85
2022/04/04 10:02:13;;;;;;;10.18;7.72;;;;;;;;;;4979534;28;20034;-83
2022/04/04 10:04:42;;;;;;;9.85;8.02;;;;;;;;;;4975015;28;20041;-83
2022/04/04 10:07:09;;;;;;;11.45;8.13;;;;;;;;;;4957530;28;20478;-83
2022/04/04 10:09:37;;;;;;;11.98;8.18;;;;;;;;;;4970647;28;20046;-85
2022/04/04 10:12:05;;;;;;;10.73;8.05;;;;;;;;;;4972952;28;20118;-85
2022/04/04 10:14:31;;;;;;;18.85;7.15;;;;;;;;;;4971423;28;20046;-85
2022/04/04 10:16:57;;;;;;;9.48;7.40;;;;;;;;;;4979132;28;20047;-85
2022/04/04 10:19:27;;;;;;;12.23;8.07;;;;;;;;;;4964271;28;20585;-84
2022/04/04 10:21:52;;;;;;;10.45;7.45;;;;;;;;;;4979421;28;20077;-84
2022/04/04 10:24:18;;;;;;;13.90;7.78;;;;;;;;;;4976379;28;20034;-84
2022/04/04 10:26:46;;;;;;;11.82;7.65;;;;;;;;;;4976407;28;20069;-84
2022/04/04 10:29:16;;;;;;;11.10;7.70;;;;;;;;;;4977540;28;20463;-84
2022/04/04 10:32:20;;;;;;;14.70;8.38;;;;;;;;;;4979135;28;20034;-84
2022/04/04 10:34:46;;;;;;;11.65;7.60;;;;;;;;;;4976104;28;20117;-84
2022/04/04 10:37:11;;;;;;;16.63;7.95;;;;;;;;;;4980085;28;20042;-83
2022/04/04 10:39:47;;;;;;;11.63;7.45;;;;;;;;;;4964035;28;20096;-83
2022/04/04 10:42:24;;;;;;;14.50;7.85;;;;;;;;;;4965367;28;20165;-84
2022/04/04 10:44:56;;;;;;;15.90;8.13;;;;;;;;;;4977707;28;20046;-84
2022/04/04 10:47:25;;;;;;;13.95;7.43;;;;;;;;;;4973967;28;20044;-84
2022/04/04 10:49:51;;;;;;;14.13;6.88;;;;;;;;;;4972319;28;20581;-84
2022/04/04 10:52:22;;;;;;;11.18;7.28;;;;;;;;;;4973545;28;20034;-84
2022/04/04 10:54:47;;;;;;;16.23;7.63;;;;;;;;;;4973980;28;20505;-84
2022/04/04 10:57:17;;;;;;;8.23;7.13;;;;;;;;;;4965366;28;20068;-83
2022/04/04 10:59:53;;;;;;;13.60;6.90;;;;;;;;;;4973579;28;20133;-84
2022/04/04 11:02:22;;;;;;;13.68;6.63;;;;;;;;;;4970860;28;20248;-83
2022/04/04 11:07:39;;;;;;;10.27;5.80;;;;;;;;;;4973203;28;20516;-84
2022/04/04 11:10:06;;;;;;;9.68;6.38;;;;;;;;;;4965120;28;20053;-84
2022/04/04 11:12:57;;;;;;;9.32;5.75;;;;;;;;;;4972218;28;20035;-83
2022/04/04 11:15:44;;;;;;;10.75;6.05;;;;;;;;;;4964460;28;20034;-83
2022/04/04 11:18:11;;;;;;;10.60;5.88;;;;;;;;;;4974775;28;20062;-83
2022/04/04 11:20:53;;;;;;;11.45;6.20;;;;;;;;;;4963989;28;20038;-83
2022/04/04 11:23:20;;;;;;;10.07;5.32;;;;;;;;;;4955564;28;20035;-84
2022/04/04 11:25:53;;;;;;;11.02;5.05;;;;;;;;;;4958694;28;20045;-83
2022/04/04 11:28:22;;;;;;;10.30;5.38;;;;;;;;;;4970607;28;20521;-83
2022/04/04 11:30:53;;;;;;;9.35;5.38;;;;;;;;;;4973798;28;20038;-83
2022/04/04 11:33:22;;;;;;;8.80;5.13;;;;;;;;;;4975298;28;20038;-85
2022/04/04 11:35:54;;;;;;;9.35;4.97;;;;;;;;;;4971393;28;20042;-84
2022/04/04 11:38:20;;;;;;;9.70;4.47;;;;;;;;;;4959896;28;20045;-84
2022/04/04 11:41:11;;;;;;;10.60;4.40;;;;;;;;;;4972696;28;20047;-84
2022/04/04 11:43:37;;;;;;;10.60;4.47;;;;;;;;;;4956427;28;20038;-81
2022/04/04 11:46:03;;;;;;;9.70;4.43;;;;;;;;;;4971578;28;20109;-84
2022/04/04 11:48:36;;;;;;;6.38;4.10;;;;;;;;;;4974021;28;20054;-83
2022/04/04 11:51:01;;;;;;;7.47;3.88;;;;;;;;;;4956787;28;20081;-83
2022/04/04 11:53:38;;;;;;;15.73;4.28;;;;;;;;;;4975414;28;20129;-84
2022/04/04 11:59:27;;;;;;;9.27;3.78;;;;;;;;;;4955757;28;20498;-85
2022/04/04 12:01:57;;;;;;;7.33;3.77;;;;;;;;;;4962407;28;20043;-84
2022/04/04 12:04:24;;;;;;;9.80;3.60;;;;;;;;;;4948223;28;20416;-83
2022/04/04 12:06:50;;;;;;;14.18;4.10;;;;;;;;;;4954422;28;20144;-83
2022/04/04 12:09:34;;;;;;;9.55;3.65;;;;;;;;;;4977830;28;20826;-82
2022/04/04 12:12:01;;;;;;;7.75;3.22;;;;;;;;;;4972090;28;20062;-85
2022/04/04 12:14:38;;;;;;;10.20;3.25;;;;;;;;;;4982065;28;20439;-83
2022/04/04 12:17:07;;;;;;;9.90;3.65;;;;;;;;;;4981646;28;20039;-82
2022/04/04 12:19:53;;;;;;;15.27;3.90;;;;;;;;;;4990444;28;20038;-83
2022/04/04 12:25:05;;;;;;;14.52;4.13;;;;;;;;;;4955875;28;20090;-82
2022/04/04 12:27:32;;;;;;;9.82;3.90;;;;;;;;;;4958540;28;20202;-81
2022/04/04 12:29:59;;;;;;;17.05;4.38;;;;;;;;;;4963794;28;20042;-81
2022/04/04 12:32:25;;;;;;;11.13;4.80;;;;;;;;;;4965191;28;20288;-81
2022/04/04 12:34:55;;;;;;;12.60;4.25;;;;;;;;;;4962618;28;20042;-81
2022/04/04 12:37:40;;;;;;;12.07;5.40;;;;;;;;;;4981954;28;20521;-81
2022/04/04 12:40:16;;;;;;;9.68;5.07;;;;;;;;;;4974302;28;20114;-83
2022/04/04 12:42:42;;;;;;;13.27;5.60;;;;;;;;;;4953831;28;20035;-82
2022/04/04 12:45:11;;;;;;;8.73;5.30;;;;;;;;;;4963214;28;20126;-82
2022/04/04 12:47:58;;;;;;;8.68;5.78;;;;;;;;;;4962334;28;20046;-81
2022/04/04 12:50:25;;;;;;;13.25;6.00;;;;;;;;;;4952506;28;20041;-80
2022/04/04 12:53:01;;;;;;;13.45;6.85;;;;;;;;;;4955501;28;20046;-82
2022/04/04 12:55:27;;;;;;;11.55;6.63;;;;;;;;;;4950208;28;20060;-82
2022/04/04 12:57:53;;;;;;;11.95;6.68;;;;;;;;;;4973232;28;20047;-80
2022/04/04 13:00:29;;;;;;;13.32;7.28;;;;;;;;;;4973843;28;20038;-83
2022/04/04 13:02:55;;;;;;;13.55;7.85;;;;;;;;;;4975896;28;20038;-82
2022/04/04 13:05:24;;;;;;;11.98;8.40;;;;;;;;;;4974537;28;20047;-82
2022/04/04 13:07:51;;;;;;;13.45;9.27;;;;;;;;;;4975478;28;20042;-82
2022/04/04 13:10:17;;;;;;;12.68;9.18;;;;;;;;;;4974933;28;20049;-82
2022/04/04 13:12:43;;;;;;;18.25;9.73;;;;;;;;;;4978003;28;20034;-82
2022/04/04 13:15:29;;;;;;;16.20;10.18;;;;;;;;;;4963538;28;20585;-82
2022/04/04 13:17:54;;;;;;;15.27;10.80;;;;;;;;;;4942685;28;20598;-80
2022/04/04 13:20:19;;;;;;;18.98;11.85;;;;;;;;;;4921880;28;20081;-82
2022/04/04 13:22:45;;;;;;;18.70;13.23;;;;;;;;;;4927748;28;20051;-81
2022/04/04 13:25:13;;;;;;;17.98;11.55;;;;;;;;;;4943575;28;20046;-82
2022/04/04 13:27:41;;;;;;;20.20;13.70;;;;;;;;;;4930327;28;20126;-82
2022/04/04 13:30:08;;;;;;;17.98;13.73;;;;;;;;;;4938505;28;20070;-81
2022/04/04 13:32:33;;;;;;;20.23;15.35;;;;;;;;;;4913272;29;20035;-82
2022/04/04 13:34:59;;;;;;;23.65;16.35;;;;;;;;;;4928113;28;20046;-81
2022/04/04 13:37:24;;;;;;;20.58;14.70;;;;;;;;;;4927428;28;20055;-81
2022/04/04 13:39:49;;;;;;;19.65;14.32;;;;;;;;;;4941894;28;20532;-82
2022/04/04 13:42:15;;;;;;;20.70;16.23;;;;;;;;;;4946901;28;20070;-80
2022/04/04 13:44:41;;;;;;;22.15;15.50;;;;;;;;;;4926506;28;20039;-81
2022/04/04 13:47:07;;;;;;;22.25;15.35;;;;;;;;;;4913045;29;20035;-80
2022/04/04 13:49:33;;;;;;;17.83;14.45;;;;;;;;;;4932101;28;20631;-82
2022/04/04 13:51:59;;;;;;;20.20;15.75;;;;;;;;;;4946332;28;20050;-80
2022/04/04 13:54:24;;;;;;;22.33;15.77;;;;;;;;;;4931200;28;20596;-81
2022/04/04 13:56:50;;;;;;;22.67;17.50;;;;;;;;;;4955428;28;20458;-80
2022/04/04 13:59:15;;;;;;;21.02;16.88;;;;;;;;;;4956394;28;20070;-83
2022/04/04 14:01:40;;;;;;;23.70;17.23;;;;;;;;;;4967576;28;20406;-81
2022/04/04 14:04:06;;;;;;;22.05;16.42;;;;;;;;;;4941260;28;20093;-81
2022/04/04 14:06:32;;;;;;;22.42;16.70;;;;;;;;;;4943778;28;20042;-83
2022/04/04 14:08:58;;;;;;;25.23;18.33;;;;;;;;;;4954881;28;20062;-81
2022/04/04 14:11:23;;;;;;;21.40;16.88;;;;;;;;;;4964377;28;20057;-82
2022/04/04 14:13:49;;;;;;;24.40;17.75;;;;;;;;;;4959007;28;20042;-82
2022/04/04 14:16:14;;;;;;;23.80;17.80;;;;;;;;;;4960253;28;20442;-81
2022/04/04 14:18:40;;;;;;;21.58;16.92;;;;;;;;;;4977001;28;20034;-82
2022/04/04 14:21:06;;;;;;;23.40;17.80;;;;;;;;;;4978905;28;20046;-82
2022/04/04 14:23:32;;;;;;;23.13;18.15;;;;;;;;;;4974781;28;20038;-84
2022/04/04 14:25:58;;;;;;;28.35;21.17;;;;;;;;;;4972349;28;20047;-81
2022/04/04 14:28:30;;;;;;;26.63;19.15;;;;;;;;;;4965320;28;20037;-80
2022/04/04 14:30:57;;;;;;;29.27;20.45;;;;;;;;;;4963116;28;20034;-80
2022/04/04 14:33:23;;;;;;;29.92;21.55;;;;;;;;;;4980133;28;20538;-80
2022/04/04 14:35:48;;;;;;;28.13;19.88;;;;;;;;;;4972168;28;20046;-83
2022/04/04 14:38:14;;;;;;;26.35;20.25;;;;;;;;;;4972786;28;20046;-82
2022/04/04 14:40:41;;;;;;;26.48;20.73;;;;;;;;;;4973191;28;20045;-83
2022/04/04 14:43:07;;;;;;;29.05;21.45;;;;;;;;;;4959401;28;20046;-80
2022/04/04 14:45:32;;;;;;;28.60;19.63;;;;;;;;;;4946159;28;20035;-82
2022/04/04 14:47:58;;;;;;;28.10;20.17;;;;;;;;;;4975894;28;20035;-81